sensor_id;sensor_type;location;lat;lon;timestamp;P1;durP1;ratioP1;P2;durP2;ratioP2
15256;SDS011;7731;50.720;6.912;2024-02-14T00:00:25;4.05;;;1.40;;
15256;SDS011;7731;50.720;6.912;2024-02-14T00:02:58;1.90;;;1.10;;
15256;SDS011;7731;50.720;6.912;2024-02-14T00:05:29;3.33;;;1.27;;
15256;SDS011;7731;50.720;6.912;2024-02-14T00:08:02;1.75;;;1.25;;
15256;SDS011;7731;50.720;6.912;2024-02-14T00:10:44;2.28;;;1.20;;
15256;SDS011;7731;50.720;6.912;2024-02-14T00:13:22;1.98;;;1.10;;
15256;SDS011;7731;50.720;6.912;2024-02-14T00:15:56;1.48;;;1.20;;
15256;SDS011;7731;50.720;6.912;2024-02-14T00:18:29;1.77;;;1.25;;
15256;SDS011;7731;50.720;6.912;2024-02-14T00:21:03;2.55;;;1.00;;
15256;SDS011;7731;50.720;6.912;2024-02-14T00:23:34;3.13;;;1.38;;
15256;SDS011;7731;50.720;6.912;2024-02-14T00:26:07;1.73;;;1.10;;
15256;SDS011;7731;50.720;6.912;2024-02-14T00:28:40;1.90;;;1.30;;
15256;SDS011;7731;50.720;6.912;2024-02-14T00:31:13;2.95;;;1.40;;
15256;SDS011;7731;50.720;6.912;2024-02-14T00:33:43;1.70;;;1.20;;
15256;SDS011;7731;50.720;6.912;2024-02-14T00:36:14;2.10;;;1.05;;
15256;SDS011;7731;50.720;6.912;2024-02-14T00:38:50;2.50;;;1.30;;
15256;SDS011;7731;50.720;6.912;2024-02-14T00:41:20;2.58;;;1.20;;
15256;SDS011;7731;50.720;6.912;2024-02-14T00:44:01;2.45;;;1.20;;
15256;SDS011;7731;50.720;6.912;2024-02-14T00:46:31;2.83;;;1.20;;
15256;SDS011;7731;50.720;6.912;2024-02-14T00:49:05;1.60;;;1.10;;
15256;SDS011;7731;50.720;6.912;2024-02-14T00:51:35;1.73;;;1.20;;
15256;SDS011;7731;50.720;6.912;2024-02-14T00:54:08;2.73;;;1.20;;
15256;SDS011;7731;50.720;6.912;2024-02-14T00:56:41;1.00;;;0.90;;
15256;SDS011;7731;50.720;6.912;2024-02-14T00:59:14;2.55;;;1.17;;
15256;SDS011;7731;50.720;6.912;2024-02-14T01:01:44;1.83;;;1.20;;
15256;SDS011;7731;50.720;6.912;2024-02-14T01:04:15;2.33;;;1.00;;
15256;SDS011;7731;50.720;6.912;2024-02-14T01:06:46;2.97;;;1.05;;
15256;SDS011;7731;50.720;6.912;2024-02-14T01:09:21;3.95;;;1.20;;
15256;SDS011;7731;50.720;6.912;2024-02-14T01:12:01;2.37;;;1.00;;
15256;SDS011;7731;50.720;6.912;2024-02-14T01:14:36;1.73;;;1.05;;
15256;SDS011;7731;50.720;6.912;2024-02-14T01:17:12;2.78;;;1.15;;
15256;SDS011;7731;50.720;6.912;2024-02-14T01:19:42;3.50;;;1.30;;
15256;SDS011;7731;50.720;6.912;2024-02-14T01:22:18;2.70;;;1.30;;
15256;SDS011;7731;50.720;6.912;2024-02-14T01:24:54;1.73;;;1.10;;
15256;SDS011;7731;50.720;6.912;2024-02-14T01:27:25;1.45;;;0.95;;
15256;SDS011;7731;50.720;6.912;2024-02-14T01:30:01;1.60;;;1.10;;
15256;SDS011;7731;50.720;6.912;2024-02-14T01:32:32;2.67;;;1.07;;
15256;SDS011;7731;50.720;6.912;2024-02-14T01:35:06;2.53;;;1.10;;
15256;SDS011;7731;50.720;6.912;2024-02-14T01:37:36;1.07;;;1.00;;
15256;SDS011;7731;50.720;6.912;2024-02-14T01:40:15;1.63;;;0.90;;
15256;SDS011;7731;50.720;6.912;2024-02-14T01:42:58;0.87;;;0.87;;
15256;SDS011;7731;50.720;6.912;2024-02-14T01:45:28;1.20;;;1.00;;
15256;SDS011;7731;50.720;6.912;2024-02-14T01:48:02;1.00;;;0.90;;
15256;SDS011;7731;50.720;6.912;2024-02-14T01:50:35;1.47;;;0.90;;
15256;SDS011;7731;50.720;6.912;2024-02-14T01:53:07;1.20;;;1.10;;
15256;SDS011;7731;50.720;6.912;2024-02-14T01:55:42;0.97;;;0.87;;
15256;SDS011;7731;50.720;6.912;2024-02-14T01:58:15;2.00;;;1.10;;
15256;SDS011;7731;50.720;6.912;2024-02-14T02:00:45;1.20;;;1.00;;
15256;SDS011;7731;50.720;6.912;2024-02-14T02:03:16;0.73;;;0.73;;
15256;SDS011;7731;50.720;6.912;2024-02-14T02:05:49;1.03;;;0.87;;
15256;SDS011;7731;50.720;6.912;2024-02-14T02:08:22;1.43;;;0.97;;
15256;SDS011;7731;50.720;6.912;2024-02-14T02:10:55;1.43;;;0.90;;
15256;SDS011;7731;50.720;6.912;2024-02-14T02:13:28;2.27;;;0.90;;
15256;SDS011;7731;50.720;6.912;2024-02-14T02:16:01;1.30;;;0.73;;
15256;SDS011;7731;50.720;6.912;2024-02-14T02:18:34;1.77;;;0.93;;
15256;SDS011;7731;50.720;6.912;2024-02-14T02:21:07;1.60;;;1.00;;
15256;SDS011;7731;50.720;6.912;2024-02-14T02:23:52;1.00;;;0.90;;
15256;SDS011;7731;50.720;6.912;2024-02-14T02:26:25;1.17;;;0.80;;
15256;SDS011;7731;50.720;6.912;2024-02-14T02:28:56;1.65;;;0.80;;
15256;SDS011;7731;50.720;6.912;2024-02-14T02:31:27;1.80;;;1.25;;
15256;SDS011;7731;50.720;6.912;2024-02-14T02:34:03;1.97;;;1.20;;
15256;SDS011;7731;50.720;6.912;2024-02-14T02:36:40;2.07;;;0.80;;
15256;SDS011;7731;50.720;6.912;2024-02-14T02:39:14;1.38;;;1.08;;
15256;SDS011;7731;50.720;6.912;2024-02-14T02:41:45;1.23;;;0.97;;
15256;SDS011;7731;50.720;6.912;2024-02-14T02:44:19;2.20;;;1.20;;
15256;SDS011;7731;50.720;6.912;2024-02-14T02:46:53;1.77;;;1.33;;
15256;SDS011;7731;50.720;6.912;2024-02-14T02:49:23;1.50;;;1.00;;
15256;SDS011;7731;50.720;6.912;2024-02-14T02:51:53;2.30;;;1.10;;
15256;SDS011;7731;50.720;6.912;2024-02-14T02:54:26;1.60;;;1.00;;
15256;SDS011;7731;50.720;6.912;2024-02-14T02:56:56;2.75;;;1.30;;
15256;SDS011;7731;50.720;6.912;2024-02-14T02:59:30;1.83;;;1.00;;
15256;SDS011;7731;50.720;6.912;2024-02-14T03:02:12;1.70;;;1.20;;
15256;SDS011;7731;50.720;6.912;2024-02-14T03:04:53;2.05;;;1.00;;
15256;SDS011;7731;50.720;6.912;2024-02-14T03:07:38;2.30;;;0.83;;
15256;SDS011;7731;50.720;6.912;2024-02-14T03:10:16;2.27;;;1.20;;
15256;SDS011;7731;50.720;6.912;2024-02-14T03:12:47;2.80;;;1.02;;
15256;SDS011;7731;50.720;6.912;2024-02-14T03:15:18;1.67;;;1.10;;
15256;SDS011;7731;50.720;6.912;2024-02-14T03:17:52;1.25;;;0.93;;
15256;SDS011;7731;50.720;6.912;2024-02-14T03:20:27;1.77;;;1.00;;
15256;SDS011;7731;50.720;6.912;2024-02-14T03:23:00;1.48;;;0.93;;
15256;SDS011;7731;50.720;6.912;2024-02-14T03:25:33;1.10;;;0.90;;
15256;SDS011;7731;50.720;6.912;2024-02-14T03:28:07;2.60;;;0.85;;
15256;SDS011;7731;50.720;6.912;2024-02-14T03:30:47;1.98;;;1.00;;
15256;SDS011;7731;50.720;6.912;2024-02-14T03:33:18;1.45;;;1.00;;
15256;SDS011;7731;50.720;6.912;2024-02-14T03:35:49;1.33;;;0.80;;
15256;SDS011;7731;50.720;6.912;2024-02-14T03:38:24;1.73;;;1.00;;
15256;SDS011;7731;50.720;6.912;2024-02-14T03:40:58;0.80;;;0.70;;
15256;SDS011;7731;50.720;6.912;2024-02-14T03:43:28;2.20;;;0.90;;
15256;SDS011;7731;50.720;6.912;2024-02-14T03:46:02;1.23;;;0.90;;
15256;SDS011;7731;50.720;6.912;2024-02-14T03:48:35;0.80;;;0.80;;
15256;SDS011;7731;50.720;6.912;2024-02-14T03:51:07;1.02;;;0.90;;
15256;SDS011;7731;50.720;6.912;2024-02-14T03:53:38;1.63;;;0.90;;
15256;SDS011;7731;50.720;6.912;2024-02-14T03:56:17;1.02;;;0.80;;
15256;SDS011;7731;50.720;6.912;2024-02-14T03:58:50;1.25;;;1.10;;
15256;SDS011;7731;50.720;6.912;2024-02-14T04:01:21;1.23;;;0.80;;
15256;SDS011;7731;50.720;6.912;2024-02-14T04:03:51;1.30;;;1.00;;
15256;SDS011;7731;50.720;6.912;2024-02-14T04:06:21;1.40;;;0.80;;
15256;SDS011;7731;50.720;6.912;2024-02-14T04:08:53;1.23;;;0.90;;
15256;SDS011;7731;50.720;6.912;2024-02-14T04:11:29;1.47;;;1.00;;
15256;SDS011;7731;50.720;6.912;2024-02-14T04:14:03;1.50;;;1.00;;
15256;SDS011;7731;50.720;6.912;2024-02-14T04:16:33;1.23;;;0.90;;
15256;SDS011;7731;50.720;6.912;2024-02-14T04:19:03;1.20;;;1.10;;
15256;SDS011;7731;50.720;6.912;2024-02-14T04:21:35;1.27;;;1.10;;
15256;SDS011;7731;50.720;6.912;2024-02-14T04:24:06;2.03;;;1.10;;
15256;SDS011;7731;50.720;6.912;2024-02-14T04:26:39;1.52;;;1.13;;
15256;SDS011;7731;50.720;6.912;2024-02-14T04:29:12;1.65;;;1.20;;
15256;SDS011;7731;50.720;6.912;2024-02-14T04:31:44;2.05;;;1.10;;
15256;SDS011;7731;50.720;6.912;2024-02-14T04:34:15;1.73;;;1.30;;
15256;SDS011;7731;50.720;6.912;2024-02-14T04:36:46;1.45;;;1.27;;
15256;SDS011;7731;50.720;6.912;2024-02-14T04:39:16;1.55;;;1.10;;
15256;SDS011;7731;50.720;6.912;2024-02-14T04:41:49;2.53;;;1.33;;
15256;SDS011;7731;50.720;6.912;2024-02-14T04:44:28;2.92;;;1.42;;
15256;SDS011;7731;50.720;6.912;2024-02-14T04:46:58;2.10;;;1.30;;
15256;SDS011;7731;50.720;6.912;2024-02-14T04:49:31;2.08;;;1.20;;
15256;SDS011;7731;50.720;6.912;2024-02-14T04:52:02;2.40;;;1.30;;
15256;SDS011;7731;50.720;6.912;2024-02-14T04:54:41;1.85;;;1.30;;
15256;SDS011;7731;50.720;6.912;2024-02-14T04:57:17;1.80;;;1.13;;
15256;SDS011;7731;50.720;6.912;2024-02-14T04:59:48;2.17;;;1.50;;
15256;SDS011;7731;50.720;6.912;2024-02-14T05:02:18;1.42;;;1.30;;
15256;SDS011;7731;50.720;6.912;2024-02-14T05:05:00;2.17;;;1.50;;
15256;SDS011;7731;50.720;6.912;2024-02-14T05:07:30;1.35;;;1.20;;
15256;SDS011;7731;50.720;6.912;2024-02-14T05:10:09;1.92;;;1.38;;
15256;SDS011;7731;50.720;6.912;2024-02-14T05:12:42;1.92;;;1.25;;
15256;SDS011;7731;50.720;6.912;2024-02-14T05:15:15;2.22;;;1.30;;
15256;SDS011;7731;50.720;6.912;2024-02-14T05:17:48;1.48;;;1.20;;
15256;SDS011;7731;50.720;6.912;2024-02-14T05:20:23;1.52;;;1.00;;
15256;SDS011;7731;50.720;6.912;2024-02-14T05:22:53;2.80;;;1.35;;
15256;SDS011;7731;50.720;6.912;2024-02-14T05:25:26;2.13;;;1.48;;
15256;SDS011;7731;50.720;6.912;2024-02-14T05:28:02;2.30;;;1.20;;
15256;SDS011;7731;50.720;6.912;2024-02-14T05:30:39;2.35;;;1.00;;
15256;SDS011;7731;50.720;6.912;2024-02-14T05:33:11;1.45;;;1.10;;
15256;SDS011;7731;50.720;6.912;2024-02-14T05:35:41;1.47;;;1.27;;
15256;SDS011;7731;50.720;6.912;2024-02-14T05:38:13;1.20;;;1.10;;
15256;SDS011;7731;50.720;6.912;2024-02-14T05:40:45;1.10;;;1.00;;
15256;SDS011;7731;50.720;6.912;2024-02-14T05:43:19;1.38;;;1.00;;
15256;SDS011;7731;50.720;6.912;2024-02-14T05:45:49;2.40;;;1.35;;
15256;SDS011;7731;50.720;6.912;2024-02-14T05:48:22;0.98;;;0.90;;
15256;SDS011;7731;50.720;6.912;2024-02-14T05:50:53;1.60;;;1.05;;
15256;SDS011;7731;50.720;6.912;2024-02-14T05:53:24;1.40;;;1.05;;
15256;SDS011;7731;50.720;6.912;2024-02-14T05:55:57;1.02;;;0.90;;
15256;SDS011;7731;50.720;6.912;2024-02-14T05:58:30;1.30;;;0.90;;
15256;SDS011;7731;50.720;6.912;2024-02-14T06:01:00;0.90;;;0.90;;
15256;SDS011;7731;50.720;6.912;2024-02-14T06:03:31;1.27;;;0.90;;
15256;SDS011;7731;50.720;6.912;2024-02-14T06:06:01;0.93;;;0.80;;
15256;SDS011;7731;50.720;6.912;2024-02-14T06:08:32;1.83;;;0.70;;
15256;SDS011;7731;50.720;6.912;2024-02-14T06:11:08;1.80;;;1.07;;
15256;SDS011;7731;50.720;6.912;2024-02-14T06:13:45;0.98;;;0.80;;
15256;SDS011;7731;50.720;6.912;2024-02-14T06:16:15;1.40;;;1.00;;
15256;SDS011;7731;50.720;6.912;2024-02-14T06:18:46;1.30;;;1.13;;
15256;SDS011;7731;50.720;6.912;2024-02-14T06:21:16;1.10;;;1.00;;
15256;SDS011;7731;50.720;6.912;2024-02-14T06:23:47;1.02;;;0.90;;
15256;SDS011;7731;50.720;6.912;2024-02-14T06:26:21;1.43;;;0.93;;
15256;SDS011;7731;50.720;6.912;2024-02-14T06:28:57;1.10;;;0.80;;
15256;SDS011;7731;50.720;6.912;2024-02-14T06:31:27;1.47;;;1.00;;
15256;SDS011;7731;50.720;6.912;2024-02-14T06:34:00;1.20;;;0.90;;
15256;SDS011;7731;50.720;6.912;2024-02-14T06:36:34;1.85;;;1.00;;
15256;SDS011;7731;50.720;6.912;2024-02-14T06:39:07;1.08;;;0.75;;
15256;SDS011;7731;50.720;6.912;2024-02-14T06:41:38;2.10;;;0.90;;
15256;SDS011;7731;50.720;6.912;2024-02-14T06:44:12;1.60;;;1.00;;
15256;SDS011;7731;50.720;6.912;2024-02-14T06:46:44;0.82;;;0.80;;
15256;SDS011;7731;50.720;6.912;2024-02-14T06:49:15;1.45;;;0.80;;
15256;SDS011;7731;50.720;6.912;2024-02-14T06:51:45;0.77;;;0.77;;
15256;SDS011;7731;50.720;6.912;2024-02-14T06:54:16;1.27;;;1.00;;
15256;SDS011;7731;50.720;6.912;2024-02-14T06:56:49;0.95;;;0.80;;
15256;SDS011;7731;50.720;6.912;2024-02-14T06:59:22;1.63;;;1.20;;
15256;SDS011;7731;50.720;6.912;2024-02-14T07:01:52;1.17;;;0.88;;
15256;SDS011;7731;50.720;6.912;2024-02-14T07:04:39;1.33;;;0.77;;
15256;SDS011;7731;50.720;6.912;2024-02-14T07:07:09;1.15;;;0.70;;
15256;SDS011;7731;50.720;6.912;2024-02-14T07:09:42;2.30;;;1.02;;
15256;SDS011;7731;50.720;6.912;2024-02-14T07:12:13;1.15;;;0.90;;
15256;SDS011;7731;50.720;6.912;2024-02-14T07:14:46;2.58;;;1.27;;
15256;SDS011;7731;50.720;6.912;2024-02-14T07:17:41;2.20;;;1.33;;
15256;SDS011;7731;50.720;6.912;2024-02-14T07:20:11;1.20;;;0.95;;
15256;SDS011;7731;50.720;6.912;2024-02-14T07:22:46;2.08;;;1.27;;
15256;SDS011;7731;50.720;6.912;2024-02-14T07:25:19;1.70;;;0.80;;
15256;SDS011;7731;50.720;6.912;2024-02-14T07:27:52;1.50;;;0.88;;
15256;SDS011;7731;50.720;6.912;2024-02-14T07:30:28;1.77;;;0.73;;
15256;SDS011;7731;50.720;6.912;2024-02-14T07:32:58;1.30;;;0.70;;
15256;SDS011;7731;50.720;6.912;2024-02-14T07:35:28;1.85;;;0.70;;
15256;SDS011;7731;50.720;6.912;2024-02-14T07:38:01;1.17;;;0.60;;
15256;SDS011;7731;50.720;6.912;2024-02-14T07:40:31;1.35;;;0.80;;
15256;SDS011;7731;50.720;6.912;2024-02-14T07:43:09;0.73;;;0.47;;
15256;SDS011;7731;50.720;6.912;2024-02-14T07:45:44;1.02;;;0.70;;
15256;SDS011;7731;50.720;6.912;2024-02-14T07:48:19;0.80;;;0.70;;
15256;SDS011;7731;50.720;6.912;2024-02-14T07:51:02;0.50;;;0.43;;
15256;SDS011;7731;50.720;6.912;2024-02-14T07:53:37;1.55;;;0.70;;
15256;SDS011;7731;50.720;6.912;2024-02-14T07:56:16;1.95;;;0.60;;
15256;SDS011;7731;50.720;6.912;2024-02-14T07:58:47;0.98;;;0.52;;
15256;SDS011;7731;50.720;6.912;2024-02-14T08:01:23;0.70;;;0.60;;
15256;SDS011;7731;50.720;6.912;2024-02-14T08:03:58;1.50;;;0.80;;
15256;SDS011;7731;50.720;6.912;2024-02-14T08:06:28;2.13;;;0.85;;
15256;SDS011;7731;50.720;6.912;2024-02-14T08:09:01;1.63;;;0.80;;
15256;SDS011;7731;50.720;6.912;2024-02-14T08:11:33;1.08;;;0.77;;
15256;SDS011;7731;50.720;6.912;2024-02-14T08:14:06;1.45;;;0.82;;
15256;SDS011;7731;50.720;6.912;2024-02-14T08:16:43;1.52;;;0.70;;
15256;SDS011;7731;50.720;6.912;2024-02-14T08:19:13;1.50;;;0.80;;
15256;SDS011;7731;50.720;6.912;2024-02-14T08:21:45;1.00;;;0.73;;
15256;SDS011;7731;50.720;6.912;2024-02-14T08:24:15;0.70;;;0.70;;
15256;SDS011;7731;50.720;6.912;2024-02-14T08:26:46;1.35;;;0.80;;
15256;SDS011;7731;50.720;6.912;2024-02-14T08:29:16;1.42;;;0.70;;
15256;SDS011;7731;50.720;6.912;2024-02-14T08:31:49;1.58;;;0.90;;
15256;SDS011;7731;50.720;6.912;2024-02-14T08:34:20;1.63;;;1.10;;
15256;SDS011;7731;50.720;6.912;2024-02-14T08:36:50;1.80;;;0.73;;
15256;SDS011;7731;50.720;6.912;2024-02-14T08:39:21;3.00;;;1.00;;
15256;SDS011;7731;50.720;6.912;2024-02-14T08:41:55;2.35;;;0.70;;
15256;SDS011;7731;50.720;6.912;2024-02-14T08:44:28;1.20;;;0.70;;
15256;SDS011;7731;50.720;6.912;2024-02-14T08:47:06;1.08;;;0.60;;
15256;SDS011;7731;50.720;6.912;2024-02-14T08:49:39;0.82;;;0.70;;
15256;SDS011;7731;50.720;6.912;2024-02-14T08:52:13;2.13;;;0.82;;
15256;SDS011;7731;50.720;6.912;2024-02-14T08:54:47;0.60;;;0.50;;
15256;SDS011;7731;50.720;6.912;2024-02-14T08:57:18;2.13;;;0.82;;
15256;SDS011;7731;50.720;6.912;2024-02-14T08:59:50;2.50;;;0.70;;
15256;SDS011;7731;50.720;6.912;2024-02-14T09:02:25;1.55;;;0.80;;
15256;SDS011;7731;50.720;6.912;2024-02-14T09:05:03;1.42;;;0.77;;
15256;SDS011;7731;50.720;6.912;2024-02-14T09:07:36;0.98;;;0.80;;
15256;SDS011;7731;50.720;6.912;2024-02-14T09:10:08;2.20;;;0.70;;
15256;SDS011;7731;50.720;6.912;2024-02-14T09:12:39;1.65;;;0.70;;
15256;SDS011;7731;50.720;6.912;2024-02-14T09:15:10;1.10;;;0.80;;
15256;SDS011;7731;50.720;6.912;2024-02-14T09:17:43;0.98;;;0.60;;
15256;SDS011;7731;50.720;6.912;2024-02-14T09:20:14;0.77;;;0.70;;
15256;SDS011;7731;50.720;6.912;2024-02-14T09:22:46;0.77;;;0.60;;
15256;SDS011;7731;50.720;6.912;2024-02-14T09:25:17;2.05;;;0.60;;
15256;SDS011;7731;50.720;6.912;2024-02-14T09:27:49;1.13;;;0.60;;
15256;SDS011;7731;50.720;6.912;2024-02-14T09:30:22;0.60;;;0.43;;
15256;SDS011;7731;50.720;6.912;2024-02-14T09:33:07;0.50;;;0.50;;
15256;SDS011;7731;50.720;6.912;2024-02-14T09:36:00;1.63;;;0.73;;
15256;SDS011;7731;50.720;6.912;2024-02-14T09:38:31;0.70;;;0.50;;
15256;SDS011;7731;50.720;6.912;2024-02-14T09:41:05;1.77;;;0.60;;
15256;SDS011;7731;50.720;6.912;2024-02-14T09:43:46;0.68;;;0.52;;
15256;SDS011;7731;50.720;6.912;2024-02-14T09:46:17;1.63;;;0.55;;
15256;SDS011;7731;50.720;6.912;2024-02-14T09:48:50;1.42;;;0.50;;
15256;SDS011;7731;50.720;6.912;2024-02-14T09:51:31;1.17;;;0.68;;
15256;SDS011;7731;50.720;6.912;2024-02-14T09:54:11;2.47;;;0.55;;
15256;SDS011;7731;50.720;6.912;2024-02-14T09:56:42;3.17;;;0.80;;
15256;SDS011;7731;50.720;6.912;2024-02-14T09:59:13;0.77;;;0.60;;
15256;SDS011;7731;50.720;6.912;2024-02-14T10:01:47;4.85;;;1.25;;
15256;SDS011;7731;50.720;6.912;2024-02-14T10:04:33;0.60;;;0.50;;
15256;SDS011;7731;50.720;6.912;2024-02-14T10:07:04;1.48;;;0.88;;
15256;SDS011;7731;50.720;6.912;2024-02-14T10:09:39;1.15;;;0.75;;
15256;SDS011;7731;50.720;6.912;2024-02-14T10:12:14;1.63;;;0.60;;
15256;SDS011;7731;50.720;6.912;2024-02-14T10:14:47;2.05;;;0.85;;
15256;SDS011;7731;50.720;6.912;2024-02-14T10:17:20;0.88;;;0.65;;
15256;SDS011;7731;50.720;6.912;2024-02-14T10:20:00;2.40;;;0.63;;
15256;SDS011;7731;50.720;6.912;2024-02-14T10:22:39;1.30;;;0.57;;
15256;SDS011;7731;50.720;6.912;2024-02-14T10:25:10;1.30;;;0.50;;
15256;SDS011;7731;50.720;6.912;2024-02-14T10:27:43;1.00;;;0.50;;
15256;SDS011;7731;50.720;6.912;2024-02-14T10:30:18;0.88;;;0.50;;
15256;SDS011;7731;50.720;6.912;2024-02-14T10:32:48;1.25;;;0.70;;
15256;SDS011;7731;50.720;6.912;2024-02-14T10:35:48;2.45;;;1.52;;
15256;SDS011;7731;50.720;6.912;2024-02-14T10:38:33;1.45;;;0.57;;
15256;SDS011;7731;50.720;6.912;2024-02-14T10:41:04;3.15;;;0.60;;
15256;SDS011;7731;50.720;6.912;2024-02-14T10:43:40;2.10;;;0.80;;
15256;SDS011;7731;50.720;6.912;2024-02-14T10:46:12;1.30;;;0.70;;
15256;SDS011;7731;50.720;6.912;2024-02-14T10:48:53;0.55;;;0.40;;
15256;SDS011;7731;50.720;6.912;2024-02-14T10:51:36;1.35;;;0.70;;
15256;SDS011;7731;50.720;6.912;2024-02-14T10:54:10;2.42;;;0.70;;
15256;SDS011;7731;50.720;6.912;2024-02-14T10:56:45;2.17;;;0.75;;
15256;SDS011;7731;50.720;6.912;2024-02-14T10:59:19;1.27;;;0.90;;
15256;SDS011;7731;50.720;6.912;2024-02-14T11:01:54;0.70;;;0.50;;
15256;SDS011;7731;50.720;6.912;2024-02-14T11:04:35;1.13;;;0.93;;
15256;SDS011;7731;50.720;6.912;2024-02-14T11:07:11;1.05;;;0.60;;
15256;SDS011;7731;50.720;6.912;2024-02-14T11:09:41;2.90;;;0.80;;
15256;SDS011;7731;50.720;6.912;2024-02-14T11:12:18;1.27;;;0.68;;
15256;SDS011;7731;50.720;6.912;2024-02-14T11:14:56;1.45;;;0.50;;
15256;SDS011;7731;50.720;6.912;2024-02-14T11:17:36;1.83;;;0.77;;
15256;SDS011;7731;50.720;6.912;2024-02-14T11:20:12;1.63;;;0.50;;
15256;SDS011;7731;50.720;6.912;2024-02-14T11:23:01;1.10;;;0.52;;
15256;SDS011;7731;50.720;6.912;2024-02-14T11:25:35;0.50;;;0.50;;
15256;SDS011;7731;50.720;6.912;2024-02-14T11:28:12;1.30;;;0.70;;
15256;SDS011;7731;50.720;6.912;2024-02-14T11:30:47;0.68;;;0.60;;
15256;SDS011;7731;50.720;6.912;2024-02-14T11:33:17;1.00;;;0.60;;
15256;SDS011;7731;50.720;6.912;2024-02-14T11:35:51;0.75;;;0.57;;
15256;SDS011;7731;50.720;6.912;2024-02-14T11:38:28;1.05;;;0.40;;
15256;SDS011;7731;50.720;6.912;2024-02-14T11:40:58;0.90;;;0.70;;
15256;SDS011;7731;50.720;6.912;2024-02-14T11:43:30;1.60;;;0.85;;
15256;SDS011;7731;50.720;6.912;2024-02-14T11:46:08;1.58;;;0.70;;
15256;SDS011;7731;50.720;6.912;2024-02-14T11:48:39;1.35;;;0.88;;
15256;SDS011;7731;50.720;6.912;2024-02-14T11:51:17;1.00;;;0.70;;
15256;SDS011;7731;50.720;6.912;2024-02-14T11:53:52;1.42;;;0.60;;
15256;SDS011;7731;50.720;6.912;2024-02-14T11:56:26;1.30;;;0.80;;
15256;SDS011;7731;50.720;6.912;2024-02-14T11:59:00;0.80;;;0.60;;
15256;SDS011;7731;50.720;6.912;2024-02-14T12:01:32;1.77;;;0.47;;
15256;SDS011;7731;50.720;6.912;2024-02-14T12:04:05;0.50;;;0.50;;
15256;SDS011;7731;50.720;6.912;2024-02-14T12:06:45;1.17;;;0.60;;
15256;SDS011;7731;50.720;6.912;2024-02-14T12:09:21;0.82;;;0.50;;
15256;SDS011;7731;50.720;6.912;2024-02-14T12:11:56;0.95;;;0.52;;
15256;SDS011;7731;50.720;6.912;2024-02-14T12:14:30;0.90;;;0.47;;
15256;SDS011;7731;50.720;6.912;2024-02-14T12:17:09;2.35;;;0.60;;
15256;SDS011;7731;50.720;6.912;2024-02-14T12:19:40;0.60;;;0.60;;
15256;SDS011;7731;50.720;6.912;2024-02-14T12:22:13;0.60;;;0.50;;
15256;SDS011;7731;50.720;6.912;2024-02-14T12:24:56;0.50;;;0.50;;
15256;SDS011;7731;50.720;6.912;2024-02-14T12:27:26;0.60;;;0.40;;
15256;SDS011;7731;50.720;6.912;2024-02-14T12:30:03;0.60;;;0.60;;
15256;SDS011;7731;50.720;6.912;2024-02-14T12:32:43;1.05;;;0.50;;
15256;SDS011;7731;50.720;6.912;2024-02-14T12:35:14;1.08;;;0.60;;
15256;SDS011;7731;50.720;6.912;2024-02-14T12:37:46;1.25;;;0.52;;
15256;SDS011;7731;50.720;6.912;2024-02-14T12:40:19;0.32;;;0.32;;
15256;SDS011;7731;50.720;6.912;2024-02-14T12:42:49;0.60;;;0.50;;
15256;SDS011;7731;50.720;6.912;2024-02-14T12:45:25;0.60;;;0.50;;
15256;SDS011;7731;50.720;6.912;2024-02-14T12:47:57;0.73;;;0.60;;
15256;SDS011;7731;50.720;6.912;2024-02-14T12:50:31;0.50;;;0.50;;
15256;SDS011;7731;50.720;6.912;2024-02-14T12:53:01;1.52;;;0.70;;
15256;SDS011;7731;50.720;6.912;2024-02-14T12:55:37;1.23;;;0.70;;
15256;SDS011;7731;50.720;6.912;2024-02-14T12:58:12;0.43;;;0.43;;
15256;SDS011;7731;50.720;6.912;2024-02-14T13:00:44;2.03;;;0.93;;
15256;SDS011;7731;50.720;6.912;2024-02-14T13:03:14;1.55;;;0.80;;
15256;SDS011;7731;50.720;6.912;2024-02-14T13:05:45;1.40;;;1.00;;
15256;SDS011;7731;50.720;6.912;2024-02-14T13:08:27;0.73;;;0.68;;
15256;SDS011;7731;50.720;6.912;2024-02-14T13:11:01;1.05;;;0.50;;
15256;SDS011;7731;50.720;6.912;2024-02-14T13:13:35;1.15;;;0.90;;
15256;SDS011;7731;50.720;6.912;2024-02-14T13:16:14;0.70;;;0.47;;
15256;SDS011;7731;50.720;6.912;2024-02-14T13:18:47;1.15;;;0.63;;
15256;SDS011;7731;50.720;6.912;2024-02-14T13:21:19;1.25;;;1.00;;
15256;SDS011;7731;50.720;6.912;2024-02-14T13:23:50;1.40;;;1.15;;
15256;SDS011;7731;50.720;6.912;2024-02-14T13:26:28;1.38;;;0.90;;
15256;SDS011;7731;50.720;6.912;2024-02-14T13:29:01;1.00;;;0.70;;
15256;SDS011;7731;50.720;6.912;2024-02-14T13:31:31;1.30;;;0.73;;
15256;SDS011;7731;50.720;6.912;2024-02-14T13:34:01;3.00;;;1.45;;
15256;SDS011;7731;50.720;6.912;2024-02-14T13:36:35;1.83;;;1.13;;
15256;SDS011;7731;50.720;6.912;2024-02-14T13:39:08;1.48;;;1.00;;
15256;SDS011;7731;50.720;6.912;2024-02-14T13:41:43;2.45;;;1.10;;
15256;SDS011;7731;50.720;6.912;2024-02-14T13:44:25;2.45;;;1.30;;
15256;SDS011;7731;50.720;6.912;2024-02-14T13:46:57;7.45;;;3.05;;
15256;SDS011;7731;50.720;6.912;2024-02-14T13:49:28;7.13;;;3.10;;
15256;SDS011;7731;50.720;6.912;2024-02-14T13:51:58;4.65;;;2.10;;
15256;SDS011;7731;50.720;6.912;2024-02-14T13:54:29;4.07;;;2.17;;
15256;SDS011;7731;50.720;6.912;2024-02-14T13:57:04;7.35;;;3.05;;
15256;SDS011;7731;50.720;6.912;2024-02-14T13:59:35;3.03;;;1.38;;
15256;SDS011;7731;50.720;6.912;2024-02-14T14:02:08;2.92;;;1.80;;
15256;SDS011;7731;50.720;6.912;2024-02-14T14:04:41;6.43;;;3.60;;
15256;SDS011;7731;50.720;6.912;2024-02-14T14:07:11;9.20;;;4.00;;
15256;SDS011;7731;50.720;6.912;2024-02-14T14:09:42;3.00;;;1.80;;
15256;SDS011;7731;50.720;6.912;2024-02-14T14:12:23;1.88;;;1.48;;
15256;SDS011;7731;50.720;6.912;2024-02-14T14:14:53;2.78;;;1.67;;
15256;SDS011;7731;50.720;6.912;2024-02-14T14:17:24;1.23;;;1.00;;
15256;SDS011;7731;50.720;6.912;2024-02-14T14:19:57;1.08;;;0.90;;
15256;SDS011;7731;50.720;6.912;2024-02-14T14:22:30;1.40;;;1.05;;
15256;SDS011;7731;50.720;6.912;2024-02-14T14:25:06;2.00;;;1.10;;
15256;SDS011;7731;50.720;6.912;2024-02-14T14:27:43;1.25;;;0.90;;
15256;SDS011;7731;50.720;6.912;2024-02-14T14:30:16;2.28;;;1.25;;
15256;SDS011;7731;50.720;6.912;2024-02-14T14:32:49;8.57;;;3.78;;
15256;SDS011;7731;50.720;6.912;2024-02-14T14:35:19;5.78;;;3.35;;
15256;SDS011;7731;50.720;6.912;2024-02-14T14:37:50;6.53;;;3.30;;
15256;SDS011;7731;50.720;6.912;2024-02-14T14:40:21;4.63;;;2.38;;
15256;SDS011;7731;50.720;6.912;2024-02-14T14:42:54;4.28;;;2.25;;
15256;SDS011;7731;50.720;6.912;2024-02-14T14:45:26;3.20;;;1.70;;
15256;SDS011;7731;50.720;6.912;2024-02-14T14:48:08;3.05;;;1.50;;
15256;SDS011;7731;50.720;6.912;2024-02-14T14:50:39;1.27;;;0.90;;
15256;SDS011;7731;50.720;6.912;2024-02-14T14:53:09;4.30;;;2.03;;
15256;SDS011;7731;50.720;6.912;2024-02-14T14:55:49;3.65;;;1.70;;
15256;SDS011;7731;50.720;6.912;2024-02-14T14:58:25;2.13;;;1.50;;
15256;SDS011;7731;50.720;6.912;2024-02-14T15:01:00;2.38;;;1.35;;
15256;SDS011;7731;50.720;6.912;2024-02-14T15:03:31;5.13;;;1.80;;
15256;SDS011;7731;50.720;6.912;2024-02-14T15:06:01;3.72;;;2.17;;
15256;SDS011;7731;50.720;6.912;2024-02-14T15:08:32;2.60;;;1.58;;
15256;SDS011;7731;50.720;6.912;2024-02-14T15:11:05;2.38;;;1.65;;
15256;SDS011;7731;50.720;6.912;2024-02-14T15:13:38;5.60;;;2.72;;
15256;SDS011;7731;50.720;6.912;2024-02-14T15:16:09;1.10;;;1.00;;
15256;SDS011;7731;50.720;6.912;2024-02-14T15:18:50;2.53;;;1.80;;
15256;SDS011;7731;50.720;6.912;2024-02-14T15:21:21;1.08;;;1.00;;
15256;SDS011;7731;50.720;6.912;2024-02-14T15:23:51;3.03;;;2.20;;
15256;SDS011;7731;50.720;6.912;2024-02-14T15:26:21;3.90;;;1.70;;
15256;SDS011;7731;50.720;6.912;2024-02-14T15:28:54;0.77;;;0.77;;
15256;SDS011;7731;50.720;6.912;2024-02-14T15:31:45;0.80;;;0.75;;
15256;SDS011;7731;50.720;6.912;2024-02-14T15:34:28;2.50;;;1.30;;
15256;SDS011;7731;50.720;6.912;2024-02-14T15:36:58;1.70;;;1.00;;
15256;SDS011;7731;50.720;6.912;2024-02-14T15:39:28;2.10;;;0.90;;